Time;durP1;ratioP1;P1;durP2;ratioP2;P2;SDS_P1;SDS_P2;PMS_P1;PMS_P2;Temp;Humidity;BMP_temperature;BMP_pressure;BME280_temperature;BME280_humidity;BME280_pressure;Samples;Min_cycle;Max_cycle;Signal;HPM_P1;HPM_P2
2021/08/29 00:00:02;;;;;;;5.90;3.95;;;12.60;99.90;;;;;;5054555;28;20040;-70
2021/08/29 00:02:28;;;;;;;6.35;3.80;;;12.70;99.90;;;;;;5054859;28;20036;-70
2021/08/29 00:04:53;;;;;;;4.25;3.75;;;12.70;99.90;;;;;;5053331;28;20112;-70
2021/08/29 00:07:19;;;;;;;4.03;3.42;;;12.60;99.90;;;;;;5054089;28;20374;-70
2021/08/29 00:09:45;;;;;;;4.10;3.70;;;12.60;99.90;;;;;;5052763;28;20029;-71
2021/08/29 00:12:10;;;;;;;4.32;3.88;;;12.50;99.90;;;;;;5054075;28;20067;-71
2021/08/29 00:14:37;;;;;;;4.03;3.42;;;12.50;99.90;;;;;;5053908;28;20390;-71
2021/08/29 00:17:02;;;;;;;5.60;3.80;;;12.50;99.90;;;;;;5053423;28;20404;-71
2021/08/29 00:19:28;;;;;;;4.97;3.97;;;12.50;99.90;;;;;;5054010;28;20035;-70
2021/08/29 00:21:54;;;;;;;6.07;3.90;;;12.50;99.90;;;;;;5052929;28;20029;-70
2021/08/29 00:24:19;;;;;;;3.53;3.13;;;12.40;99.90;;;;;;5053753;28;20328;-71
2021/08/29 00:26:45;;;;;;;3.95;3.58;;;12.40;99.90;;;;;;5052901;28;20045;-71
2021/08/29 00:29:10;;;;;;;3.67;3.38;;;12.40;99.90;;;;;;5052206;28;20135;-70
2021/08/29 00:31:36;;;;;;;4.55;3.25;;;12.40;99.90;;;;;;5053862;28;20033;-70
2021/08/29 00:34:02;;;;;;;3.75;3.35;;;12.40;99.90;;;;;;5053106;28;20028;-70
2021/08/29 00:36:27;;;;;;;3.80;3.40;;;12.30;99.90;;;;;;5053609;28;20359;-70
2021/08/29 00:38:53;;;;;;;3.83;3.35;;;12.30;99.90;;;;;;5052709;28;20025;-70
2021/08/29 00:41:18;;;;;;;4.20;3.80;;;12.40;99.90;;;;;;5053347;28;20048;-71
2021/08/29 00:43:44;;;;;;;4.07;3.65;;;12.40;99.90;;;;;;5053190;28;20029;-70
2021/08/29 00:46:10;;;;;;;3.72;3.30;;;12.50;99.90;;;;;;5053512;28;20036;-70
2021/08/29 00:48:36;;;;;;;4.60;3.63;;;12.50;99.90;;;;;;5053925;28;20044;-71
2021/08/29 00:51:02;;;;;;;6.25;4.05;;;12.60;99.90;;;;;;5053247;28;20051;-70
2021/08/29 00:53:32;;;;;;;4.40;3.28;;;12.60;99.90;;;;;;5053875;28;20040;-70
2021/08/29 00:55:58;;;;;;;3.50;3.20;;;12.60;99.90;;;;;;5051744;28;20102;-70
2021/08/29 00:58:29;;;;;;;4.68;3.75;;;12.60;99.90;;;;;;5053260;28;20443;-70
2021/08/29 01:00:56;;;;;;;4.22;3.80;;;12.70;99.90;;;;;;5053440;28;20488;-70
2021/08/29 01:03:26;;;;;;;3.78;3.47;;;12.70;99.90;;;;;;5054029;28;20021;-70
2021/08/29 01:05:56;;;;;;;4.20;3.10;;;12.70;99.90;;;;;;5052900;28;20031;-70
2021/08/29 01:08:25;;;;;;;4.15;3.30;;;12.80;99.90;;;;;;5053361;28;20033;-70
2021/08/29 01:10:56;;;;;;;5.93;3.67;;;12.80;99.90;;;;;;5052408;28;20392;-70
2021/08/29 01:13:46;;;;;;;3.75;3.10;;;12.80;99.90;;;;;;5053257;28;20467;-70
2021/08/29 01:16:15;;;;;;;5.68;3.47;;;12.80;99.90;;;;;;5053425;28;20035;-70
2021/08/29 01:18:42;;;;;;;4.10;3.20;;;12.90;99.90;;;;;;5053446;28;20035;-70
2021/08/29 01:21:21;;;;;;;4.65;3.85;;;12.90;99.90;;;;;;5052662;28;20358;-70
2021/08/29 01:23:54;;;;;;;3.95;3.53;;;12.90;99.90;;;;;;5052390;28;20079;-70
2021/08/29 01:26:46;;;;;;;4.20;3.53;;;12.90;99.90;;;;;;5052147;28;20032;-70
2021/08/29 01:29:15;;;;;;;5.20;3.60;;;12.90;99.90;;;;;;5052687;28;20021;-70
2021/08/29 01:31:42;;;;;;;4.82;4.32;;;12.90;99.90;;;;;;5052983;28;20458;-70
2021/08/29 01:34:14;;;;;;;5.43;4.05;;;12.90;99.90;;;;;;5052217;28;20115;-70
2021/08/29 01:36:43;;;;;;;3.90;3.58;;;12.90;99.90;;;;;;5052414;28;20507;-70
2021/08/29 01:39:09;;;;;;;4.50;3.92;;;12.90;99.90;;;;;;5051598;28;20017;-70
2021/08/29 01:41:37;;;;;;;5.95;4.72;;;12.90;99.90;;;;;;5052480;28;20057;-70
2021/08/29 01:44:05;;;;;;;4.28;3.88;;;12.90;99.90;;;;;;5050522;28;20025;-70
2021/08/29 01:46:32;;;;;;;5.18;4.28;;;12.90;99.90;;;;;;5052062;28;20466;-70
2021/08/29 01:48:58;;;;;;;4.47;3.83;;;12.80;99.90;;;;;;5050843;28;20032;-70
2021/08/29 01:51:23;;;;;;;4.75;4.10;;;12.80;99.90;;;;;;5052213;28;20029;-71
2021/08/29 01:53:49;;;;;;;5.47;4.20;;;12.80;99.90;;;;;;5051391;28;20036;-70
2021/08/29 01:56:15;;;;;;;5.22;4.25;;;12.80;99.90;;;;;;5051735;28;20033;-70
2021/08/29 01:58:40;;;;;;;6.70;4.57;;;12.80;99.90;;;;;;5051975;28;20458;-70
2021/08/29 02:01:11;;;;;;;5.68;4.03;;;12.80;99.90;;;;;;5051421;28;20025;-70
2021/08/29 02:03:40;;;;;;;5.90;4.90;;;12.80;99.90;;;;;;5052583;28;20025;-70
2021/08/29 02:06:17;;;;;;;5.40;4.47;;;12.80;99.90;;;;;;5051431;28;20025;-70
2021/08/29 02:08:51;;;;;;;4.70;4.18;;;12.80;99.90;;;;;;5052002;28;20048;-70
2021/08/29 02:11:20;;;;;;;6.53;4.43;;;12.80;99.90;;;;;;5051501;28;20099;-70
2021/08/29 02:13:49;;;;;;;5.60;4.60;;;12.70;99.90;;;;;;5051869;28;20029;-70
2021/08/29 02:16:18;;;;;;;5.50;4.55;;;12.70;99.90;;;;;;5051843;28;20342;-70
2021/08/29 02:18:48;;;;;;;6.15;4.95;;;12.70;99.90;;;;;;5050699;28;20025;-70
2021/08/29 02:21:14;;;;;;;5.37;4.23;;;12.70;99.90;;;;;;5051259;28;20035;-70
2021/08/29 02:23:40;;;;;;;4.88;4.10;;;12.70;99.90;;;;;;5051805;28;20252;-70
2021/08/29 02:26:06;;;;;;;4.32;3.92;;;12.70;99.90;;;;;;5050997;28;20029;-70
2021/08/29 02:28:33;;;;;;;5.65;4.03;;;12.70;99.90;;;;;;5051424;28;20040;-70
2021/08/29 02:31:00;;;;;;;5.95;4.55;;;12.70;99.90;;;;;;5050916;28;20021;-70
2021/08/29 02:33:26;;;;;;;5.32;4.78;;;12.70;99.90;;;;;;5051382;28;20467;-70
2021/08/29 02:35:53;;;;;;;5.20;4.65;;;12.70;99.90;;;;;;5050292;28;20500;-70
2021/08/29 02:38:20;;;;;;;4.72;4.32;;;12.60;99.90;;;;;;5051308;28;20119;-70
2021/08/29 02:40:47;;;;;;;5.80;4.63;;;12.60;99.90;;;;;;5050966;28;20041;-71
2021/08/29 02:43:14;;;;;;;5.22;4.72;;;12.50;99.90;;;;;;5051172;28;20119;-71
2021/08/29 02:45:42;;;;;;;5.20;4.32;;;12.60;99.90;;;;;;5051521;28;20394;-71
2021/08/29 02:48:08;;;;;;;6.07;4.22;;;12.50;99.90;;;;;;5050662;28;20029;-71
2021/08/29 02:50:34;;;;;;;5.70;4.75;;;12.50;99.90;;;;;;5051482;28;20032;-71
2021/08/29 02:53:01;;;;;;;7.90;4.50;;;12.40;99.90;;;;;;5050717;28;20466;-71
2021/08/29 02:55:29;;;;;;;9.52;5.85;;;12.40;99.90;;;;;;5051826;28;20040;-71
2021/08/29 02:58:06;;;;;;;7.32;5.25;;;12.40;99.90;;;;;;5050455;28;20025;-71
2021/08/29 03:00:32;;;;;;;5.78;4.47;;;12.40;99.90;;;;;;5051360;28;20074;-71
2021/08/29 03:02:58;;;;;;;5.90;4.78;;;12.30;99.90;;;;;;5050300;28;20037;-71
2021/08/29 03:05:24;;;;;;;6.10;5.45;;;12.30;99.90;;;;;;5051130;28;20021;-71
2021/08/29 03:07:50;;;;;;;6.47;5.60;;;12.30;99.90;;;;;;5050782;28;20120;-71
2021/08/29 03:10:17;;;;;;;7.93;5.57;;;12.30;99.90;;;;;;5050971;28;20027;-72
2021/08/29 03:12:43;;;;;;;6.80;5.80;;;12.20;99.90;;;;;;5051279;28;20033;-72
2021/08/29 03:15:11;;;;;;;7.22;5.53;;;12.20;99.90;;;;;;5050671;28;20052;-72
2021/08/29 03:17:37;;;;;;;9.52;5.38;;;12.20;99.90;;;;;;5051626;28;20035;-72
2021/08/29 03:20:07;;;;;;;7.80;5.85;;;12.20;99.90;;;;;;5050593;28;20492;-72
2021/08/29 03:22:38;;;;;;;7.38;5.20;;;12.10;99.90;;;;;;5050437;28;20056;-72
2021/08/29 03:25:06;;;;;;;6.82;5.38;;;12.20;99.90;;;;;;5051002;28;20040;-72
2021/08/29 03:27:33;;;;;;;8.85;6.35;;;12.10;99.90;;;;;;5051022;28;20128;-72
2021/08/29 03:29:58;;;;;;;6.68;5.82;;;12.10;99.90;;;;;;5050527;28;20056;-72
2021/08/29 03:32:24;;;;;;;9.43;5.80;;;12.10;99.90;;;;;;5051912;28;20053;-72
2021/08/29 03:34:54;;;;;;;8.82;5.20;;;12.10;99.90;;;;;;5051407;28;20442;-72
2021/08/29 03:37:22;;;;;;;9.25;5.72;;;12.10;99.90;;;;;;5051915;28;20075;-72
2021/08/29 03:39:49;;;;;;;7.13;5.75;;;12.00;99.90;;;;;;5051585;28;20417;-72
2021/08/29 03:42:17;;;;;;;7.70;5.70;;;12.00;99.90;;;;;;5051745;28;20025;-72
2021/08/29 03:44:43;;;;;;;7.03;5.43;;;12.00;99.90;;;;;;5051201;28;20024;-72
2021/08/29 03:47:09;;;;;;;7.63;5.97;;;12.00;99.90;;;;;;5050661;28;20285;-70
2021/08/29 03:49:35;;;;;;;10.82;6.40;;;12.00;99.90;;;;;;5051532;28;20064;-72
2021/08/29 03:52:01;;;;;;;8.65;6.75;;;12.00;99.90;;;;;;5050388;28;20029;-72
2021/08/29 03:54:27;;;;;;;9.88;6.05;;;12.00;99.90;;;;;;5051083;28;20029;-72
2021/08/29 03:56:53;;;;;;;6.45;5.68;;;12.00;99.90;;;;;;5049865;28;20056;-71
2021/08/29 03:59:19;;;;;;;9.23;5.72;;;12.00;99.90;;;;;;5050118;28;20398;-72
2021/08/29 04:01:45;;;;;;;8.77;6.40;;;11.90;99.90;;;;;;5050591;28;20021;-72
2021/08/29 04:04:11;;;;;;;7.47;6.10;;;11.90;99.90;;;;;;5049667;28;20203;-72
2021/08/29 04:06:37;;;;;;;7.10;6.10;;;11.90;99.90;;;;;;5050466;28;20390;-73
2021/08/29 04:09:05;;;;;;;7.60;5.93;;;11.90;99.90;;;;;;5049826;28;20097;-72
2021/08/29 04:11:33;;;;;;;8.00;6.45;;;11.90;99.90;;;;;;5050981;28;20619;-72
2021/08/29 04:13:59;;;;;;;7.97;5.82;;;11.90;99.90;;;;;;5052709;28;20051;-72
2021/08/29 04:16:25;;;;;;;8.30;5.45;;;11.90;99.90;;;;;;5054013;28;20021;-73
2021/08/29 04:18:51;;;;;;;7.97;6.00;;;11.90;99.90;;;;;;5053789;28;20025;-71
2021/08/29 04:21:19;;;;;;;7.18;5.68;;;11.90;99.90;;;;;;5053748;28;20554;-72
2021/08/29 04:23:45;;;;;;;6.35;5.57;;;11.90;99.90;;;;;;5054038;28;20029;-72
2021/08/29 04:26:11;;;;;;;8.55;6.57;;;11.90;99.90;;;;;;5053325;28;20027;-72
2021/08/29 04:28:38;;;;;;;6.55;5.53;;;11.90;99.90;;;;;;5053968;28;20124;-72
2021/08/29 04:31:21;;;;;;;6.95;6.22;;;11.90;99.90;;;;;;5052838;28;20056;-72
2021/08/29 04:33:47;;;;;;;8.02;6.15;;;11.90;99.90;;;;;;5053794;28;20095;-72
2021/08/29 04:36:13;;;;;;;8.55;6.95;;;11.90;99.90;;;;;;5052759;28;20025;-72
2021/08/29 04:38:38;;;;;;;8.05;6.43;;;11.90;99.90;;;;;;5053818;28;20079;-72
2021/08/29 04:41:05;;;;;;;6.93;5.93;;;12.00;99.90;;;;;;5052798;28;20462;-71
2021/08/29 04:43:30;;;;;;;6.38;5.70;;;12.00;99.90;;;;;;5053641;28;20033;-72
2021/08/29 04:45:56;;;;;;;5.72;5.13;;;12.00;99.90;;;;;;5052692;28;20028;-71
2021/08/29 04:48:22;;;;;;;6.22;5.05;;;12.00;99.90;;;;;;5053167;28;20041;-71
2021/08/29 04:50:48;;;;;;;7.15;5.55;;;12.00;99.90;;;;;;5053722;28;20118;-72
2021/08/29 04:53:13;;;;;;;7.00;5.45;;;12.00;99.90;;;;;;5052303;28;20032;-72
2021/08/29 04:55:39;;;;;;;6.82;5.30;;;12.00;99.90;;;;;;5053516;28;20024;-72
2021/08/29 04:58:05;;;;;;;6.78;5.10;;;12.00;99.90;;;;;;5052536;28;20029;-71
2021/08/29 05:00:30;;;;;;;6.50;5.30;;;12.00;99.90;;;;;;5053114;28;20025;-72
2021/08/29 05:02:56;;;;;;;7.93;5.32;;;12.00;99.90;;;;;;5052457;28;20025;-71
2021/08/29 05:05:21;;;;;;;8.73;5.60;;;12.00;99.90;;;;;;5053210;28;20060;-72
2021/08/29 05:07:47;;;;;;;10.25;6.28;;;12.00;99.90;;;;;;5052904;28;20470;-71
2021/08/29 05:10:13;;;;;;;6.93;5.85;;;12.00;99.90;;;;;;5052088;28;20021;-71
2021/08/29 05:12:38;;;;;;;7.63;5.50;;;12.00;99.90;;;;;;5052713;28;20086;-72
2021/08/29 05:15:04;;;;;;;8.13;5.82;;;12.00;99.90;;;;;;5052255;28;20021;-72
2021/08/29 05:17:31;;;;;;;7.68;5.50;;;12.00;99.90;;;;;;5052934;28;20040;-71
2021/08/29 05:19:57;;;;;;;6.43;5.47;;;12.00;99.90;;;;;;5052510;28;20092;-71
2021/08/29 05:22:22;;;;;;;8.75;5.53;;;12.00;99.90;;;;;;5052698;28;20528;-72
2021/08/29 05:24:48;;;;;;;7.80;6.15;;;12.00;99.90;;;;;;5052562;28;20033;-72
2021/08/29 05:27:13;;;;;;;6.90;5.82;;;11.90;99.90;;;;;;5051631;28;20033;-72
2021/08/29 05:29:39;;;;;;;6.93;5.88;;;11.90;99.90;;;;;;5052501;28;20055;-72
2021/08/29 05:32:05;;;;;;;8.63;6.03;;;11.90;99.90;;;;;;5051814;28;20045;-72
2021/08/29 05:34:31;;;;;;;7.10;5.50;;;11.90;99.90;;;;;;5052311;28;20049;-72
2021/08/29 05:36:56;;;;;;;5.70;5.00;;;11.90;99.90;;;;;;5051964;28;20416;-70
2021/08/29 05:39:22;;;;;;;7.35;5.13;;;11.90;99.90;;;;;;5052479;28;20040;-71
2021/08/29 05:41:47;;;;;;;6.15;4.85;;;11.90;99.90;;;;;;5052639;28;20057;-71
2021/08/29 05:44:13;;;;;;;6.30;4.63;;;11.90;99.90;;;;;;5051650;28;20021;-72
2021/08/29 05:46:39;;;;;;;5.50;4.53;;;11.90;99.90;;;;;;5051852;28;20148;-71
2021/08/29 05:49:04;;;;;;;5.45;4.63;;;11.90;99.90;;;;;;5051562;28;20108;-71
2021/08/29 05:51:30;;;;;;;8.30;4.78;;;11.90;99.90;;;;;;5052368;28;20025;-71
2021/08/29 05:53:55;;;;;;;6.57;4.88;;;11.90;99.90;;;;;;5051244;28;20032;-70
2021/08/29 05:56:21;;;;;;;7.00;4.78;;;11.90;99.90;;;;;;5052397;28;20044;-72
2021/08/29 05:58:47;;;;;;;6.68;4.78;;;11.90;99.90;;;;;;5052070;28;20025;-71
2021/08/29 06:01:14;;;;;;;6.18;4.85;;;11.90;99.90;;;;;;5051370;28;20036;-71
2021/08/29 06:03:41;;;;;;;6.82;4.88;;;11.90;99.90;;;;;;5051992;28;20029;-71
2021/08/29 06:06:06;;;;;;;6.78;4.53;;;11.90;99.90;;;;;;5051250;28;20033;-71
2021/08/29 06:08:32;;;;;;;6.15;4.90;;;12.00;99.90;;;;;;5051958;28;20056;-72
2021/08/29 06:10:58;;;;;;;7.40;4.50;;;12.00;99.90;;;;;;5050946;28;20085;-70
2021/08/29 06:13:24;;;;;;;4.78;4.00;;;12.10;99.90;;;;;;5051665;28;20098;-71
2021/08/29 06:15:50;;;;;;;7.78;5.35;;;12.10;99.90;;;;;;5051842;28;20035;-71
2021/08/29 06:18:16;;;;;;;6.28;5.32;;;12.10;99.90;;;;;;5050822;28;20726;-71
2021/08/29 06:20:42;;;;;;;5.32;4.82;;;12.10;99.90;;;;;;5050501;28;20108;-72
2021/08/29 06:23:08;;;;;;;7.97;5.53;;;12.10;99.90;;;;;;5050838;28;20509;-72
2021/08/29 06:25:34;;;;;;;5.38;4.35;;;12.10;99.90;;;;;;5051594;28;20025;-72
2021/08/29 06:27:59;;;;;;;5.85;4.40;;;12.10;99.90;;;;;;5050834;28;20036;-71
2021/08/29 06:30:25;;;;;;;3.78;3.47;;;12.10;99.90;;;;;;5051524;28;20111;-71
2021/08/29 06:32:51;;;;;;;4.22;3.80;;;12.10;99.90;;;;;;5051020;28;20493;-71
2021/08/29 06:35:17;;;;;;;4.35;3.50;;;12.10;99.90;;;;;;5049907;28;20021;-71
2021/08/29 06:37:42;;;;;;;3.63;3.10;;;12.10;99.90;;;;;;5051463;28;20036;-71
2021/08/29 06:40:09;;;;;;;3.42;3.13;;;12.20;99.90;;;;;;5050399;28;20485;-71
2021/08/29 06:42:34;;;;;;;2.78;2.50;;;12.20;99.90;;;;;;5051791;28;20021;-72
2021/08/29 06:45:00;;;;;;;2.60;2.40;;;12.20;99.90;;;;;;5051070;28;20489;-71
2021/08/29 06:47:26;;;;;;;2.20;2.00;;;12.20;99.90;;;;;;5051580;28;20037;-71
2021/08/29 06:49:51;;;;;;;1.98;1.80;;;12.20;99.90;;;;;;5051453;28;20040;-72
2021/08/29 06:52:17;;;;;;;1.90;1.80;;;12.20;99.90;;;;;;5051154;28;20085;-72
2021/08/29 06:54:43;;;;;;;4.97;1.65;;;12.20;99.90;;;;;;5052191;28;20032;-72
2021/08/29 06:57:08;;;;;;;1.95;1.67;;;12.20;99.90;;;;;;5050789;28;20064;-72
2021/08/29 06:59:34;;;;;;;1.60;1.50;;;12.20;99.90;;;;;;5051785;28;20033;-72
2021/08/29 07:02:00;;;;;;;1.60;1.50;;;12.20;99.90;;;;;;5050859;28;20025;-71
2021/08/29 07:04:25;;;;;;;1.40;1.30;;;12.20;99.90;;;;;;5051347;28;20029;-72
2021/08/29 07:06:51;;;;;;;3.20;1.50;;;12.20;99.90;;;;;;5051763;28;20131;-72
2021/08/29 07:09:16;;;;;;;1.95;1.55;;;12.20;99.90;;;;;;5050747;28;20025;-72
2021/08/29 07:11:42;;;;;;;1.48;1.38;;;12.20;99.90;;;;;;5051708;28;20029;-72
2021/08/29 07:14:08;;;;;;;1.60;1.50;;;12.30;99.90;;;;;;5050945;28;20029;-71
2021/08/29 07:16:33;;;;;;;2.65;1.67;;;12.30;99.90;;;;;;5051419;28;20455;-72
2021/08/29 07:18:59;;;;;;;1.35;1.25;;;12.30;99.90;;;;;;5051036;28;20029;-71
2021/08/29 07:21:25;;;;;;;1.50;1.40;;;12.30;99.90;;;;;;5051103;28;20130;-72
2021/08/29 07:23:50;;;;;;;1.35;1.15;;;12.30;99.90;;;;;;5051400;28;20377;-72
2021/08/29 07:26:16;;;;;;;1.30;0.90;;;12.30;99.90;;;;;;5050385;28;20033;-73
2021/08/29 07:28:43;;;;;;;1.13;1.00;;;12.30;99.90;;;;;;5051516;28;20029;-72
2021/08/29 07:31:09;;;;;;;0.88;0.88;;;12.30;99.90;;;;;;5054634;28;20378;-72
2021/08/29 07:33:35;;;;;;;1.00;1.00;;;12.30;99.90;;;;;;5051303;28;20032;-72
2021/08/29 07:36:02;;;;;;;1.13;1.02;;;12.30;99.90;;;;;;5050650;28;20064;-70
2021/08/29 07:38:27;;;;;;;1.20;1.10;;;12.30;99.90;;;;;;5051412;28;20025;-72
2021/08/29 07:40:53;;;;;;;1.40;1.13;;;12.30;99.90;;;;;;5050875;28;20059;-72
2021/08/29 07:43:19;;;;;;;0.80;0.80;;;12.20;99.90;;;;;;5050181;28;20032;-73
2021/08/29 07:45:45;;;;;;;1.58;1.10;;;12.30;99.90;;;;;;5050616;28;20486;-74
2021/08/29 07:48:10;;;;;;;1.00;1.00;;;12.30;99.90;;;;;;5054650;28;20029;-72
2021/08/29 07:50:36;;;;;;;1.50;1.40;;;12.30;99.90;;;;;;5055289;28;20029;-73
2021/08/29 07:53:03;;;;;;;1.83;1.30;;;12.30;99.90;;;;;;5054012;28;20033;-72
2021/08/29 07:55:29;;;;;;;1.10;0.98;;;12.30;99.90;;;;;;5054917;28;20040;-72
2021/08/29 07:57:55;;;;;;;1.15;1.00;;;12.40;99.90;;;;;;5053903;28;20029;-72
2021/08/29 08:00:20;;;;;;;2.63;1.10;;;12.40;99.90;;;;;;5054238;28;20616;-71
2021/08/29 08:02:46;;;;;;;1.20;1.08;;;12.40;99.90;;;;;;5054879;28;20359;-72
2021/08/29 08:05:12;;;;;;;1.10;0.85;;;12.40;99.90;;;;;;5052713;28;20028;-72
2021/08/29 08:07:38;;;;;;;1.10;1.00;;;12.50;99.90;;;;;;5054480;28;20040;-71
2021/08/29 08:10:05;;;;;;;1.25;1.15;;;12.50;99.90;;;;;;5054094;28;20048;-70
2021/08/29 08:12:31;;;;;;;2.05;1.80;;;12.60;99.90;;;;;;5054685;28;20471;-71
2021/08/29 08:14:57;;;;;;;1.27;1.15;;;12.60;99.90;;;;;;5054429;28;20033;-71
2021/08/29 08:17:22;;;;;;;5.22;2.13;;;12.60;99.90;;;;;;5043863;28;20500;-68
2021/08/29 08:19:48;;;;;;;2.55;1.70;;;12.70;99.90;;;;;;5054657;28;20029;-69
2021/08/29 08:22:15;;;;;;;1.10;1.00;;;12.80;99.90;;;;;;5055322;28;20029;-68
2021/08/29 08:24:41;;;;;;;0.93;0.50;;;12.80;99.90;;;;;;5053984;28;20049;-67
2021/08/29 08:27:07;;;;;;;4.72;0.90;;;12.80;99.90;;;;;;5053690;28;20484;-67
2021/08/29 08:29:32;;;;;;;0.80;0.70;;;12.80;99.90;;;;;;5055125;28;20036;-67
2021/08/29 08:31:59;;;;;;;0.68;0.63;;;12.90;99.90;;;;;;5054804;28;20473;-67
2021/08/29 08:34:24;;;;;;;1.00;0.77;;;13.00;99.90;;;;;;5054800;28;20029;-68
2021/08/29 08:36:50;;;;;;;0.68;0.68;;;13.00;99.90;;;;;;5054222;28;20033;-71
2021/08/29 08:39:15;;;;;;;1.13;0.70;;;13.00;99.90;;;;;;5054268;28;20032;-68
2021/08/29 08:41:41;;;;;;;0.50;0.50;;;13.00;99.90;;;;;;5054163;28;20049;-67
2021/08/29 08:44:07;;;;;;;1.23;0.80;;;13.00;99.90;;;;;;5053971;28;20025;-67
2021/08/29 08:46:33;;;;;;;0.82;0.60;;;13.10;99.90;;;;;;5054264;28;20088;-67
2021/08/29 08:49:02;;;;;;;1.20;0.68;;;13.20;99.90;;;;;;5054202;28;20466;-67
2021/08/29 08:51:36;;;;;;;0.82;0.60;;;13.20;99.90;;;;;;5054203;28;20033;-66
2021/08/29 08:54:03;;;;;;;0.57;0.50;;;13.30;99.90;;;;;;5053486;28;20029;-67
2021/08/29 08:56:31;;;;;;;0.82;0.82;;;13.30;99.90;;;;;;5053966;28;20021;-68
2021/08/29 08:58:59;;;;;;;1.50;1.17;;;13.40;99.90;;;;;;5053663;28;20029;-67
2021/08/29 09:01:25;;;;;;;1.52;1.08;;;13.40;99.90;;;;;;5053878;28;20431;-67
2021/08/29 09:03:50;;;;;;;1.27;1.17;;;13.40;99.90;;;;;;5054148;28;20048;-68
2021/08/29 09:06:18;;;;;;;1.52;1.42;;;13.50;99.90;;;;;;5053335;28;20033;-68
2021/08/29 09:08:44;;;;;;;1.50;1.40;;;13.60;99.90;;;;;;5053965;28;20052;-68
2021/08/29 09:11:10;;;;;;;1.60;1.20;;;13.60;99.90;;;;;;5053431;28;20036;-67
2021/08/29 09:14:04;;;;;;;1.45;1.30;;;13.70;99.90;;;;;;5053565;28;20033;-67
2021/08/29 09:16:31;;;;;;;1.30;1.10;;;13.70;99.90;;;;;;5047300;28;20045;-67
2021/08/29 09:18:59;;;;;;;1.30;0.88;;;13.80;99.90;;;;;;5033635;28;20121;-68
2021/08/29 09:21:29;;;;;;;1.52;1.17;;;13.80;99.90;;;;;;5033165;28;20382;-68
2021/08/29 09:23:55;;;;;;;;;;;13.80;99.90;;;;;;5034355;28;20076;-68
2021/08/29 09:26:23;;;;;;;1.10;0.70;;;13.80;99.90;;;;;;5033352;28;19905;-72
2021/08/29 09:28:50;;;;;;;0.63;0.63;;;13.90;99.90;;;;;;5033771;28;20037;-68
2021/08/29 09:31:18;;;;;;;0.77;0.70;;;13.90;99.90;;;;;;5033103;28;20022;-67
2021/08/29 09:33:57;;;;;;;0.95;0.77;;;13.90;99.90;;;;;;5033664;28;20025;-68
2021/08/29 09:36:32;;;;;;;0.90;0.90;;;13.90;99.90;;;;;;5032956;28;20082;-70
2021/08/29 09:39:15;;;;;;;1.15;0.68;;;13.90;99.90;;;;;;5033273;28;20468;-71
2021/08/29 09:41:41;;;;;;;0.47;0.47;;;13.90;99.90;;;;;;5032954;28;20060;-70
2021/08/29 09:44:09;;;;;;;1.17;0.85;;;13.90;99.90;;;;;;5032837;28;20064;-69
2021/08/29 09:46:47;;;;;;;0.80;0.80;;;14.00;99.90;;;;;;5033836;28;20036;-68
2021/08/29 09:49:25;;;;;;;0.50;0.50;;;14.00;99.90;;;;;;5052971;28;20110;-67
2021/08/29 09:51:51;;;;;;;1.30;0.50;;;14.00;99.90;;;;;;5053124;28;20116;-67
2021/08/29 09:54:43;;;;;;;0.30;0.30;;;14.00;99.90;;;;;;5052584;28;20067;-67
2021/08/29 09:57:11;;;;;;;0.75;0.50;;;14.10;99.90;;;;;;5052303;28;20036;-68
2021/08/29 09:59:38;;;;;;;0.75;0.40;;;14.20;99.90;;;;;;5052882;28;20356;-67
2021/08/29 10:02:05;;;;;;;1.10;0.40;;;14.30;99.90;;;;;;5053113;28;20025;-68
2021/08/29 10:04:30;;;;;;;0.50;0.50;;;14.30;99.90;;;;;;5053067;28;20045;-67
2021/08/29 10:07:07;;;;;;;1.85;0.65;;;14.20;99.90;;;;;;5052782;28;20068;-68
2021/08/29 10:09:33;;;;;;;0.50;0.50;;;14.20;99.90;;;;;;5052518;28;20021;-67
2021/08/29 10:11:59;;;;;;;1.15;1.05;;;14.20;99.90;;;;;;5052055;28;20116;-66
2021/08/29 10:14:26;;;;;;;1.17;0.90;;;14.20;99.90;;;;;;5052090;28;20471;-66
2021/08/29 10:16:52;;;;;;;0.70;0.70;;;14.10;99.90;;;;;;5052462;28;20037;-66
2021/08/29 10:19:19;;;;;;;0.98;0.98;;;14.10;99.90;;;;;;5051634;28;20490;-66
2021/08/29 10:21:45;;;;;;;1.00;0.90;;;14.00;99.90;;;;;;5052878;28;20120;-66
2021/08/29 10:24:12;;;;;;;1.00;1.00;;;14.00;99.90;;;;;;5051809;28;20104;-66
2021/08/29 10:26:41;;;;;;;1.40;1.30;;;13.90;99.90;;;;;;5052155;28;20039;-66
2021/08/29 10:29:11;;;;;;;1.27;1.25;;;14.00;99.90;;;;;;5052224;28;20025;-66
2021/08/29 10:31:51;;;;;;;1.40;1.30;;;14.00;99.90;;;;;;5052789;28;20029;-67
2021/08/29 10:34:18;;;;;;;1.80;1.70;;;13.90;99.90;;;;;;5050424;28;20348;-67
2021/08/29 10:36:44;;;;;;;2.75;1.70;;;13.90;99.90;;;;;;5052613;28;20360;-68
2021/08/29 10:39:10;;;;;;;2.80;2.17;;;13.80;99.90;;;;;;5051902;28;20025;-69
2021/08/29 10:41:38;;;;;;;1.52;1.42;;;13.90;99.90;;;;;;5052360;28;20081;-68
2021/08/29 10:44:05;;;;;;;1.80;1.70;;;13.90;99.90;;;;;;5052169;28;20107;-69
2021/08/29 10:46:34;;;;;;;2.65;2.45;;;13.90;99.90;;;;;;5052228;28;20036;-69
2021/08/29 10:49:00;;;;;;;4.35;2.97;;;13.90;99.90;;;;;;5051598;28;20043;-73
2021/08/29 10:51:27;;;;;;;6.47;4.82;;;13.90;99.90;;;;;;5051687;28;20053;-71
2021/08/29 10:53:56;;;;;;;5.45;4.82;;;13.90;99.90;;;;;;5051771;28;20530;-67
2021/08/29 10:56:25;;;;;;;30.13;18.73;;;14.10;99.90;;;;;;5051613;28;20029;-70
2021/08/29 10:59:09;;;;;;;11.17;8.43;;;14.30;99.90;;;;;;5052128;28;20060;-69
2021/08/29 11:01:44;;;;;;;6.43;5.82;;;14.60;99.90;;;;;;5052087;28;20025;-69
2021/08/29 11:04:19;;;;;;;5.20;4.70;;;14.80;99.90;;;;;;5051501;28;20031;-70
2021/08/29 11:06:46;;;;;;;5.43;4.72;;;14.90;99.90;;;;;;5051994;28;20459;-68
2021/08/29 11:09:40;;;;;;;5.10;3.92;;;14.90;99.90;;;;;;5051236;28;20025;-70
2021/08/29 11:12:15;;;;;;;5.38;3.70;;;15.00;99.90;;;;;;5052226;28;20100;-71
2021/08/29 11:14:55;;;;;;;3.58;3.28;;;15.00;99.90;;;;;;5051999;28;20017;-70
2021/08/29 11:17:29;;;;;;;4.60;3.80;;;15.20;99.90;;;;;;5051299;28;20155;-74
2021/08/29 11:20:01;;;;;;;3.53;3.22;;;15.10;99.90;;;;;;5052146;28;20463;-70
2021/08/29 11:22:28;;;;;;;6.25;3.95;;;15.20;99.90;;;;;;5053784;28;20040;-70
2021/08/29 11:24:55;;;;;;;3.42;3.13;;;15.30;99.90;;;;;;5055857;28;20029;-70
2021/08/29 11:27:35;;;;;;;3.28;2.97;;;15.40;99.90;;;;;;5055357;28;20087;-70
2021/08/29 11:30:09;;;;;;;4.60;4.20;;;15.70;99.90;;;;;;5055916;28;20040;-70
2021/08/29 11:32:38;;;;;;;4.95;3.53;;;15.80;99.90;;;;;;5055844;28;20029;-71
2021/08/29 11:35:25;;;;;;;5.38;4.28;;;16.10;99.90;;;;;;5055776;28;20087;-72
2021/08/29 11:38:18;;;;;;;3.80;2.90;;;16.30;99.90;;;;;;5055799;28;20037;-73
2021/08/29 11:40:47;;;;;;;2.70;2.50;;;16.50;99.90;;;;;;5054934;28;20049;-66
2021/08/29 11:43:33;;;;;;;2.00;1.90;;;16.70;99.90;;;;;;5054831;28;20068;-68
2021/08/29 11:46:08;;;;;;;2.97;2.70;;;16.70;99.90;;;;;;5055611;28;20029;-67
2021/08/29 11:48:34;;;;;;;2.78;2.53;;;16.70;99.90;;;;;;5054841;28;20455;-65
2021/08/29 11:51:03;;;;;;;5.07;2.72;;;16.80;99.90;;;;;;5055770;28;20082;-68
2021/08/29 11:53:40;;;;;;;4.90;2.80;;;17.00;99.90;;;;;;5054884;28;20409;-66
2021/08/29 11:56:06;;;;;;;2.78;2.55;;;17.10;99.90;;;;;;5054803;28;20025;-66
2021/08/29 11:58:32;;;;;;;2.70;2.50;;;17.10;99.90;;;;;;5054638;28;20033;-65
2021/08/29 12:01:02;;;;;;;2.42;2.22;;;17.10;99.90;;;;;;5055011;28;20482;-65
2021/08/29 12:03:35;;;;;;;2.63;2.42;;;17.00;99.90;;;;;;5054749;28;20040;-64
2021/08/29 12:06:07;;;;;;;2.20;2.00;;;16.90;99.90;;;;;;5055304;28;20021;-66
2021/08/29 12:08:52;;;;;;;2.75;2.55;;;16.90;99.90;;;;;;5054574;28;20033;-68
2021/08/29 12:11:19;;;;;;;2.53;2.15;;;16.70;99.90;;;;;;5053993;28;20114;-68
2021/08/29 12:13:45;;;;;;;2.50;2.30;;;16.50;99.90;;;;;;5055255;28;20374;-68
2021/08/29 12:16:12;;;;;;;2.45;2.25;;;16.40;99.90;;;;;;5054735;28;20037;-68
2021/08/29 12:18:39;;;;;;;2.30;2.00;;;16.30;99.90;;;;;;5054825;28;20037;-68
2021/08/29 12:21:07;;;;;;;2.45;2.22;;;16.20;99.90;;;;;;5054701;28;20359;-68
2021/08/29 12:23:35;;;;;;;2.58;2.35;;;16.20;99.90;;;;;;5054454;28;20024;-68
2021/08/29 12:26:04;;;;;;;2.50;2.30;;;16.00;99.90;;;;;;5054759;28;20421;-68
2021/08/29 12:28:30;;;;;;;2.63;2.42;;;15.90;99.90;;;;;;5054172;28;20367;-68
2021/08/29 12:30:57;;;;;;;3.05;2.60;;;15.80;99.90;;;;;;5054570;28;20021;-68
2021/08/29 12:33:24;;;;;;;2.65;2.45;;;15.70;99.90;;;;;;5053007;28;20028;-68
2021/08/29 12:35:51;;;;;;;3.45;2.85;;;15.60;99.90;;;;;;5054444;28;20029;-68
2021/08/29 12:38:23;;;;;;;4.38;3.28;;;15.50;99.90;;;;;;5052193;28;20036;-68
2021/08/29 12:40:52;;;;;;;3.38;3.08;;;15.50;99.90;;;;;;5053133;28;20049;-69
2021/08/29 12:43:19;;;;;;;10.77;3.08;;;15.60;99.90;;;;;;5033351;28;20065;-68
2021/08/29 12:45:45;;;;;;;3.33;3.03;;;15.60;99.90;;;;;;5033769;28;20036;-69
2021/08/29 12:48:11;;;;;;;3.38;3.08;;;15.70;99.90;;;;;;5047008;28;20422;-69
2021/08/29 12:50:49;;;;;;;3.65;3.35;;;15.80;99.90;;;;;;5053181;28;20028;-68